createdAt,value
2022-10-13T00:01:25.483Z,5.20
2022-10-13T00:03:54.694Z,5.72
2022-10-13T00:06:25.577Z,5.70
2022-10-13T00:08:54.095Z,4.70
2022-10-13T00:11:26.659Z,4.80
2022-10-13T00:13:58.434Z,3.25
2022-10-13T00:16:28.933Z,4.60
2022-10-13T00:18:57.867Z,4.43
2022-10-13T00:21:28.608Z,5.43
2022-10-13T00:23:57.440Z,5.03
2022-10-13T00:26:28.454Z,5.25
2022-10-13T00:28:57.275Z,5.28
2022-10-13T00:31:28.466Z,5.88
2022-10-13T00:33:58.683Z,6.15
2022-10-13T00:36:27.118Z,5.32
2022-10-13T00:38:55.597Z,5.25
2022-10-13T00:41:24.047Z,5.63
2022-10-13T00:44:00.253Z,5.60
2022-10-13T00:46:31.746Z,5.03
2022-10-13T00:49:04.007Z,5.97
2022-10-13T00:51:39.295Z,5.78
2022-10-13T00:54:11.016Z,5.97
2022-10-13T00:56:42.898Z,4.72
2022-10-13T00:59:23.097Z,5.22
2022-10-13T01:01:52.349Z,6.53
2022-10-13T01:04:23.539Z,5.63
2022-10-13T01:06:52.340Z,4.90
2022-10-13T01:09:20.706Z,5.40
2022-10-13T01:12:03.928Z,5.72
2022-10-13T01:14:42.614Z,5.15
2022-10-13T01:17:21.512Z,6.03
2022-10-13T01:20:32.482Z,5.90
2022-10-13T01:23:31.557Z,6.57
2022-10-13T01:26:30.012Z,7.78
2022-10-13T01:29:27.401Z,5.90
2022-10-13T01:32:05.544Z,5.70
2022-10-13T01:34:44.156Z,6.20
2022-10-13T01:37:21.421Z,6.32
2022-10-13T01:39:58.482Z,5.68
2022-10-13T01:42:37.912Z,5.82
2022-10-13T01:45:08.894Z,6.20
2022-10-13T01:47:39.907Z,6.70
2022-10-13T01:50:09.733Z,7.30
2022-10-13T01:52:40.288Z,6.88
2022-10-13T01:55:11.479Z,6.40
2022-10-13T01:57:42.582Z,5.90
2022-10-13T02:00:14.667Z,6.22
2022-10-13T02:02:56.834Z,7.45
2022-10-13T02:05:35.599Z,7.22
2022-10-13T02:08:10.948Z,7.32
2022-10-13T02:10:47.609Z,6.97
2022-10-13T02:13:20.646Z,6.88
2022-10-13T02:15:54.192Z,7.22
2022-10-13T02:18:29.306Z,7.00
2022-10-13T02:20:58.245Z,7.90
2022-10-13T02:23:27.911Z,7.88
2022-10-13T02:25:58.625Z,7.60
2022-10-13T02:28:28.204Z,6.53
2022-10-13T02:30:57.255Z,7.65
2022-10-13T02:33:27.139Z,6.57
2022-10-13T02:35:55.539Z,6.82
2022-10-13T02:38:23.960Z,7.45
2022-10-13T02:40:52.336Z,7.80
2022-10-13T02:43:20.708Z,7.05
2022-10-13T02:45:49.045Z,8.05
2022-10-13T02:48:17.360Z,7.68
2022-10-13T02:50:48.286Z,8.32
2022-10-13T02:53:16.642Z,8.82
2022-10-13T02:55:45.035Z,8.63
2022-10-13T02:58:13.416Z,7.95
2022-10-13T03:00:41.766Z,9.15
2022-10-13T03:03:11.062Z,8.90
2022-10-13T03:05:39.458Z,7.35
2022-10-13T03:08:09.270Z,10.00
2022-10-13T03:10:37.646Z,8.85
2022-10-13T03:13:05.978Z,9.40
2022-10-13T03:15:34.274Z,8.27
2022-10-13T03:18:02.610Z,8.75
2022-10-13T03:20:30.932Z,9.68
2022-10-13T03:22:59.293Z,8.40
2022-10-13T03:25:29.505Z,8.88
2022-10-13T03:27:57.859Z,6.80
2022-10-13T03:30:26.354Z,8.05
2022-10-13T03:32:54.934Z,8.90
2022-10-13T03:35:23.402Z,8.43
2022-10-13T03:37:51.800Z,8.13
2022-10-13T03:40:20.124Z,8.80
2022-10-13T03:42:49.842Z,7.38
2022-10-13T03:45:18.446Z,8.90
2022-10-13T03:47:46.845Z,8.02
2022-10-13T03:50:15.544Z,8.50
2022-10-13T03:52:43.894Z,7.82
2022-10-13T03:55:12.251Z,6.80
2022-10-13T03:57:40.588Z,7.53
2022-10-13T04:00:12.751Z,7.25
2022-10-13T04:02:41.172Z,7.88
2022-10-13T04:05:10.661Z,6.82
2022-10-13T04:07:39.027Z,7.70
2022-10-13T04:10:11.416Z,7.03
2022-10-13T04:12:40.025Z,7.32
2022-10-13T04:15:11.810Z,6.65
2022-10-13T04:17:40.184Z,5.78
2022-10-13T04:20:10.552Z,7.57
2022-10-13T04:22:39.025Z,7.10
2022-10-13T04:25:09.599Z,6.47
2022-10-13T04:27:39.504Z,7.97
2022-10-13T04:30:13.697Z,8.88
2022-10-13T04:32:42.110Z,8.07
2022-10-13T04:35:10.938Z,8.57
2022-10-13T04:37:44.839Z,9.10
2022-10-13T04:40:14.219Z,7.70
2022-10-13T04:42:42.762Z,10.00
2022-10-13T04:45:13.082Z,8.38
2022-10-13T04:47:41.504Z,9.75
2022-10-13T04:50:11.248Z,9.27
2022-10-13T04:52:39.629Z,10.48
2022-10-13T04:55:10.325Z,10.50
2022-10-13T04:57:38.795Z,10.25
2022-10-13T05:00:09.675Z,10.15
2022-10-13T05:02:39.847Z,9.48
2022-10-13T05:05:10.174Z,10.05
2022-10-13T05:07:38.540Z,10.32
2022-10-13T05:10:07.674Z,9.90
2022-10-13T05:12:36.249Z,9.80
2022-10-13T05:15:05.276Z,10.90
2022-10-13T05:17:35.543Z,9.98
2022-10-13T05:20:06.321Z,10.10
2022-10-13T05:22:34.674Z,9.55
2022-10-13T05:25:03.055Z,10.27
2022-10-13T05:27:31.397Z,8.60
2022-10-13T05:29:59.758Z,9.82
2022-10-13T05:32:28.128Z,8.95
2022-10-13T05:34:56.488Z,7.85
2022-10-13T05:37:26.369Z,9.55
2022-10-13T05:39:54.756Z,8.57
2022-10-13T05:42:23.283Z,9.45
2022-10-13T05:44:52.237Z,8.60
2022-10-13T05:47:20.604Z,8.00
2022-10-13T05:49:48.947Z,9.52
2022-10-13T05:52:17.579Z,11.02
2022-10-13T05:54:51.705Z,8.57
2022-10-13T05:57:23.447Z,9.27
2022-10-13T05:59:57.600Z,10.20
2022-10-13T06:02:31.554Z,10.25
2022-10-13T06:04:59.961Z,8.13
2022-10-13T06:07:28.355Z,7.57
2022-10-13T06:09:59.257Z,9.13
2022-10-13T06:12:27.634Z,7.15
2022-10-13T06:14:56.015Z,7.88
2022-10-13T06:17:24.449Z,6.13
2022-10-13T06:19:52.810Z,9.43
2022-10-13T06:22:22.468Z,8.60
2022-10-13T06:24:50.949Z,8.52
2022-10-13T06:27:20.684Z,8.38
2022-10-13T06:29:49.103Z,8.23
2022-10-13T06:32:17.726Z,9.93
2022-10-13T06:34:46.261Z,9.10
2022-10-13T06:37:14.602Z,7.80
2022-10-13T06:39:43.019Z,8.60
2022-10-13T06:42:11.432Z,8.68
2022-10-13T06:44:41.214Z,7.75
2022-10-13T06:47:09.979Z,8.55
2022-10-13T06:49:38.401Z,8.88
2022-10-13T06:52:07.161Z,7.88
2022-10-13T06:54:35.595Z,10.52
2022-10-13T06:57:06.764Z,10.15
2022-10-13T06:59:35.223Z,7.82
2022-10-13T07:02:05.054Z,8.52
2022-10-13T07:04:33.471Z,8.00
2022-10-13T07:07:01.841Z,9.65
2022-10-13T07:09:30.394Z,8.05
2022-10-13T07:11:58.823Z,8.70
2022-10-13T07:14:27.538Z,7.30
2022-10-13T07:16:55.954Z,8.48
2022-10-13T07:19:25.708Z,10.32
2022-10-13T07:21:54.563Z,10.43
2022-10-13T07:24:23.211Z,9.38
2022-10-13T07:26:51.634Z,8.68
2022-10-13T07:29:20.021Z,11.07
2022-10-13T07:31:48.595Z,10.35
2022-10-13T07:34:17.592Z,9.57
2022-10-13T07:36:47.348Z,9.73
2022-10-13T07:39:15.752Z,10.95
2022-10-13T07:41:47.537Z,11.00
2022-10-13T07:44:19.530Z,10.27
2022-10-13T07:46:47.947Z,8.80
2022-10-13T07:49:16.673Z,10.55
2022-10-13T07:51:46.479Z,11.02
2022-10-13T07:54:15.564Z,10.55
2022-10-13T07:56:44.019Z,11.80
2022-10-13T07:59:12.743Z,9.93
2022-10-13T08:01:41.693Z,9.30
2022-10-13T08:04:10.208Z,11.23
2022-10-13T08:09:13.592Z,10.35
2022-10-13T08:11:41.989Z,10.65
2022-10-13T08:14:13.526Z,11.15
2022-10-13T08:16:48.617Z,7.90
2022-10-13T08:19:22.722Z,10.55
2022-10-13T08:21:59.518Z,11.93
2022-10-13T08:24:30.834Z,11.30
2022-10-13T08:26:59.259Z,9.68
2022-10-13T08:29:27.778Z,9.23
2022-10-13T08:31:56.749Z,9.82
2022-10-13T08:34:26.881Z,11.13
2022-10-13T08:36:56.786Z,11.88
2022-10-13T08:39:26.014Z,9.05
2022-10-13T08:41:57.927Z,9.85
2022-10-13T08:47:43.208Z,9.30
2022-10-13T08:50:16.551Z,9.73
2022-10-13T08:52:50.814Z,9.38
2022-10-13T08:55:32.140Z,10.00
2022-10-13T08:58:04.323Z,8.48
2022-10-13T09:00:32.856Z,11.45
2022-10-13T09:03:23.077Z,11.23
2022-10-13T09:06:06.289Z,8.82
2022-10-13T09:08:45.167Z,9.43
2022-10-13T09:11:14.469Z,10.88
2022-10-13T09:13:44.338Z,9.40
2022-10-13T09:16:12.878Z,10.25
2022-10-13T09:18:41.488Z,12.77
2022-10-13T09:21:20.759Z,11.05
2022-10-13T09:23:52.215Z,10.30
2022-10-13T09:26:25.654Z,12.05
2022-10-13T09:28:55.487Z,10.32
2022-10-13T09:31:27.465Z,10.45
2022-10-13T09:34:01.311Z,10.55
2022-10-13T09:36:31.415Z,10.23
2022-10-13T09:39:14.459Z,11.77
2022-10-13T09:41:44.746Z,11.77
2022-10-13T09:44:18.957Z,9.65
2022-10-13T09:46:54.748Z,11.55
2022-10-13T09:49:38.523Z,9.95
2022-10-13T09:52:16.507Z,11.75
2022-10-13T09:54:51.209Z,11.07
2022-10-13T09:57:29.863Z,11.40
2022-10-13T10:00:14.789Z,11.70
2022-10-13T10:02:51.894Z,12.20
2022-10-13T10:05:26.309Z,12.68
2022-10-13T10:07:57.480Z,11.07
2022-10-13T10:10:35.326Z,11.18
2022-10-13T10:13:05.026Z,12.98
2022-10-13T10:15:46.103Z,12.63
2022-10-13T10:18:20.027Z,11.43
2022-10-13T10:21:01.592Z,10.25
2022-10-13T10:23:43.890Z,11.07
2022-10-13T10:26:23.697Z,11.18
2022-10-13T10:29:20.928Z,12.07
2022-10-13T10:32:16.663Z,14.18
2022-10-13T10:34:54.397Z,12.98
2022-10-13T10:37:56.359Z,13.35
2022-10-13T10:40:37.773Z,11.50
2022-10-13T10:43:44.693Z,12.48
2022-10-13T10:46:18.755Z,11.70
2022-10-13T10:48:50.993Z,14.70
2022-10-13T10:51:20.646Z,11.32
2022-10-13T10:54:03.484Z,14.02
2022-10-13T10:56:36.742Z,13.07
2022-10-13T10:59:21.542Z,12.15
2022-10-13T11:02:03.766Z,13.43
2022-10-13T11:04:43.079Z,11.90
2022-10-13T11:07:32.598Z,13.02
2022-10-13T11:10:22.150Z,12.52
2022-10-13T11:13:22.270Z,11.77
2022-10-13T11:15:51.202Z,14.13
2022-10-13T11:19:08.786Z,9.98
2022-10-13T11:22:27.465Z,11.27
2022-10-13T11:25:25.023Z,15.38
2022-10-13T11:27:53.405Z,11.05
2022-10-13T11:30:43.893Z,12.38
2022-10-13T11:33:52.411Z,10.30
2022-10-13T11:36:51.195Z,12.27
2022-10-13T11:40:12.649Z,11.55
2022-10-13T11:43:28.451Z,11.45
2022-10-13T11:46:23.214Z,12.05
2022-10-13T11:49:28.617Z,12.70
2022-10-13T11:52:41.927Z,10.52
2022-10-13T11:55:16.401Z,12.07
2022-10-13T11:57:45.073Z,12.43
2022-10-13T12:00:17.650Z,11.10
2022-10-13T12:02:51.615Z,13.63
2022-10-13T12:05:25.618Z,11.55
2022-10-13T12:07:57.972Z,12.18
2022-10-13T12:10:34.942Z,12.02
2022-10-13T12:13:05.148Z,10.70
2022-10-13T12:15:36.496Z,12.02
2022-10-13T12:18:23.145Z,11.98
2022-10-13T12:20:55.964Z,10.65
2022-10-13T12:23:24.656Z,11.55
2022-10-13T12:25:58.469Z,13.35
2022-10-13T12:28:30.935Z,12.80
2022-10-13T12:31:00.948Z,14.23
2022-10-13T12:33:32.357Z,13.45
2022-10-13T12:36:15.169Z,14.38
2022-10-13T12:38:50.610Z,12.98
2022-10-13T12:41:26.818Z,11.35
2022-10-13T12:43:56.264Z,13.73
2022-10-13T12:46:41.180Z,15.63
2022-10-13T12:49:16.553Z,12.38
2022-10-13T12:51:49.614Z,11.10
2022-10-13T12:54:26.494Z,11.55
2022-10-13T12:57:00.156Z,11.50
2022-10-13T12:59:31.594Z,10.70
2022-10-13T13:02:03.165Z,11.15
2022-10-13T13:04:44.999Z,10.32
2022-10-13T13:07:33.086Z,10.15
2022-10-13T13:10:17.816Z,11.85
2022-10-13T13:12:49.242Z,9.07
2022-10-13T13:15:37.915Z,10.85
2022-10-13T13:18:41.642Z,10.52
2022-10-13T13:21:13.486Z,10.20
2022-10-13T13:23:42.789Z,11.90
2022-10-13T13:26:17.222Z,11.23
2022-10-13T13:28:49.818Z,10.52
2022-10-13T13:31:20.884Z,10.82
2022-10-13T13:33:49.515Z,11.68
2022-10-13T13:36:21.042Z,14.10
2022-10-13T13:38:50.356Z,12.43
2022-10-13T13:41:19.165Z,12.93
2022-10-13T13:43:50.807Z,12.20
2022-10-13T13:46:23.313Z,13.20
2022-10-13T13:48:52.119Z,12.15
2022-10-13T13:51:20.672Z,12.75
2022-10-13T13:53:49.070Z,13.02
2022-10-13T13:56:20.160Z,11.82
2022-10-13T13:58:50.113Z,12.90
2022-10-13T14:01:18.593Z,11.65
2022-10-13T14:03:47.083Z,12.93
2022-10-13T14:06:20.143Z,12.80
2022-10-13T14:08:48.842Z,12.23
2022-10-13T14:11:17.389Z,14.20
2022-10-13T14:13:45.842Z,13.38
2022-10-13T14:16:18.820Z,12.27
2022-10-13T14:18:47.223Z,16.30
2022-10-13T14:21:15.829Z,13.10
2022-10-13T14:23:47.057Z,12.23
2022-10-13T14:26:15.789Z,11.90
2022-10-13T14:28:44.552Z,16.17
2022-10-13T14:31:13.574Z,12.55
2022-10-13T14:33:43.467Z,10.73
2022-10-13T14:36:12.034Z,12.98
2022-10-13T14:38:40.495Z,13.93
2022-10-13T14:41:08.869Z,11.27
2022-10-13T14:43:37.330Z,12.32
2022-10-13T14:46:07.850Z,11.98
2022-10-13T14:48:37.931Z,11.85
2022-10-13T14:51:09.384Z,12.30
2022-10-13T14:53:39.756Z,12.45
2022-10-13T14:56:20.497Z,11.43
2022-10-13T14:58:50.480Z,13.32
2022-10-13T15:01:19.464Z,11.82
2022-10-13T15:03:48.267Z,12.23
2022-10-13T15:06:21.358Z,12.82
2022-10-13T15:08:50.724Z,11.23
2022-10-13T15:11:21.805Z,11.98
2022-10-13T15:13:50.618Z,11.57
2022-10-13T15:16:21.925Z,11.15
2022-10-13T15:18:50.770Z,10.25
2022-10-13T15:21:21.359Z,11.77
2022-10-13T15:23:49.844Z,12.40
2022-10-13T15:26:20.821Z,11.40
2022-10-13T15:28:52.046Z,10.48
2022-10-13T15:31:22.691Z,11.23
2022-10-13T15:33:53.514Z,13.40
2022-10-13T15:36:25.015Z,11.05
2022-10-13T15:38:53.675Z,8.80
2022-10-13T15:41:23.704Z,11.07
2022-10-13T15:43:52.217Z,9.50
2022-10-13T15:46:24.353Z,10.00
2022-10-13T15:48:55.331Z,8.65
2022-10-13T15:51:26.989Z,11.65
2022-10-13T15:53:56.227Z,10.80
2022-10-13T15:56:24.916Z,8.13
2022-10-13T15:58:53.858Z,9.38
2022-10-13T16:01:22.337Z,9.63
2022-10-13T16:03:55.606Z,9.13
2022-10-13T16:06:26.752Z,10.15
2022-10-13T16:08:55.355Z,9.55
2022-10-13T16:11:26.204Z,10.27
2022-10-13T16:13:54.719Z,10.07
2022-10-13T16:16:23.371Z,10.50
2022-10-13T16:18:51.985Z,10.18
2022-10-13T16:21:23.912Z,10.05
2022-10-13T16:23:54.092Z,10.52
2022-10-13T16:26:22.632Z,10.40
2022-10-13T16:28:54.930Z,11.15
2022-10-13T16:31:23.381Z,11.60
2022-10-13T16:33:51.770Z,9.77
2022-10-13T16:36:21.387Z,10.55
2022-10-13T16:38:49.774Z,9.88
2022-10-13T16:41:20.041Z,10.27
2022-10-13T16:43:49.299Z,11.32
2022-10-13T16:46:20.046Z,11.98
2022-10-13T16:48:49.078Z,12.50
2022-10-13T16:51:20.562Z,11.77
2022-10-13T16:53:50.570Z,11.38
2022-10-13T16:56:22.312Z,10.85
2022-10-13T16:58:51.405Z,12.02
2022-10-13T17:01:19.928Z,11.70
2022-10-13T17:03:51.239Z,13.50
2022-10-13T17:06:22.241Z,14.05
2022-10-13T17:08:50.818Z,10.35
2022-10-13T17:11:23.292Z,12.90
2022-10-13T17:13:53.890Z,11.85
2022-10-13T17:16:22.832Z,12.40
2022-10-13T17:18:52.001Z,11.85
2022-10-13T17:21:22.180Z,13.52
2022-10-13T17:23:51.496Z,12.25
2022-10-13T17:26:23.383Z,10.95
2022-10-13T17:28:53.071Z,13.85
2022-10-13T17:31:24.660Z,11.15
2022-10-13T17:33:54.868Z,12.05
2022-10-13T17:36:26.985Z,11.48
2022-10-13T17:38:58.318Z,14.15
2022-10-13T17:41:30.506Z,14.23
2022-10-13T17:44:01.048Z,15.77
2022-10-13T17:46:38.241Z,12.13
2022-10-13T17:49:11.094Z,12.15
2022-10-13T17:51:43.451Z,12.65
2022-10-13T17:54:16.873Z,12.90
2022-10-13T17:56:49.760Z,13.57
2022-10-13T17:59:20.464Z,14.00
2022-10-13T18:01:49.136Z,11.95
2022-10-13T18:04:20.976Z,12.50
2022-10-13T18:06:50.923Z,12.38
2022-10-13T18:09:24.511Z,12.52
2022-10-13T18:11:56.543Z,12.05
2022-10-13T18:14:27.088Z,12.82
2022-10-13T18:16:56.820Z,13.27
2022-10-13T18:19:27.875Z,13.13
2022-10-13T18:21:58.364Z,13.23
2022-10-13T18:24:27.617Z,14.52
2022-10-13T18:26:58.836Z,11.50
2022-10-13T18:29:28.818Z,14.73
2022-10-13T18:31:59.737Z,15.35
2022-10-13T18:34:30.988Z,13.43
2022-10-13T18:37:02.405Z,15.75
2022-10-13T18:39:34.688Z,18.42
2022-10-13T18:42:09.282Z,15.10
2022-10-13T18:44:38.892Z,14.10
2022-10-13T18:47:09.521Z,15.82
2022-10-13T18:49:39.522Z,14.48
2022-10-13T18:52:12.280Z,13.90
2022-10-13T18:54:42.721Z,13.15
2022-10-13T18:57:14.642Z,14.27
2022-10-13T18:59:46.236Z,14.57
2022-10-13T19:02:16.977Z,14.38
2022-10-13T19:04:46.320Z,15.20
2022-10-13T19:07:14.921Z,12.15
2022-10-13T19:09:44.351Z,13.10
2022-10-13T19:12:14.951Z,12.32
2022-10-13T19:14:45.931Z,12.90
2022-10-13T19:17:15.156Z,12.65
2022-10-13T19:19:46.065Z,11.50
2022-10-13T19:22:15.550Z,12.70
2022-10-13T19:24:47.375Z,13.32
2022-10-13T19:27:20.850Z,14.15
2022-10-13T19:29:55.364Z,14.07
2022-10-13T19:32:26.246Z,13.43
2022-10-13T19:34:57.083Z,12.43
2022-10-13T19:37:28.679Z,15.45
2022-10-13T19:39:59.822Z,13.60
2022-10-13T19:42:31.132Z,14.25
2022-10-13T19:45:02.731Z,13.63
2022-10-13T19:47:33.152Z,13.90
2022-10-13T19:50:03.356Z,15.23
2022-10-13T19:52:34.892Z,13.60
2022-10-13T19:55:07.121Z,14.23
2022-10-13T19:57:38.549Z,15.07
2022-10-13T20:00:10.270Z,15.65
2022-10-13T20:02:39.540Z,12.73
2022-10-13T20:05:09.853Z,14.90
2022-10-13T20:07:38.718Z,12.45
2022-10-13T20:10:08.845Z,12.20
2022-10-13T20:12:39.290Z,12.85
2022-10-13T20:15:08.706Z,12.80
2022-10-13T20:17:37.740Z,12.88
2022-10-13T20:20:08.234Z,13.20
2022-10-13T20:22:37.627Z,12.40
2022-10-13T20:25:07.957Z,12.73
2022-10-13T20:27:39.636Z,11.25
2022-10-13T20:30:10.082Z,13.30
2022-10-13T20:32:38.732Z,13.77
2022-10-13T20:35:08.373Z,12.70
2022-10-13T20:37:36.870Z,14.15
2022-10-13T20:40:06.647Z,13.80
2022-10-13T20:42:35.033Z,12.23
2022-10-13T20:45:05.679Z,11.68
2022-10-13T20:47:34.098Z,15.00
2022-10-13T20:50:02.531Z,13.75
2022-10-13T20:52:30.951Z,14.73
2022-10-13T20:54:59.354Z,13.23
2022-10-13T20:57:27.767Z,15.07
2022-10-13T20:59:56.158Z,13.70
2022-10-13T21:02:25.912Z,13.18
2022-10-13T21:04:54.315Z,15.85
2022-10-13T21:07:23.101Z,15.40
2022-10-13T21:09:54.007Z,13.90
2022-10-13T21:12:22.633Z,15.00
2022-10-13T21:14:51.009Z,14.77
2022-10-13T21:17:19.687Z,14.43
2022-10-13T21:19:49.851Z,14.00
2022-10-13T21:22:18.258Z,14.57
2022-10-13T21:24:46.586Z,14.70
2022-10-13T21:27:14.932Z,13.13
2022-10-13T21:29:43.289Z,13.70
2022-10-13T21:32:12.008Z,15.05
2022-10-13T21:34:40.381Z,15.05
2022-10-13T21:37:10.109Z,13.10
2022-10-13T21:39:38.733Z,13.82
2022-10-13T21:42:07.205Z,12.90
2022-10-13T21:44:35.602Z,14.50
2022-10-13T21:47:04.026Z,14.02
2022-10-13T21:49:33.000Z,17.50
2022-10-13T21:52:01.405Z,16.58
2022-10-13T21:54:31.130Z,14.32
2022-10-13T21:56:59.745Z,14.85
2022-10-13T21:59:28.376Z,14.25
2022-10-13T22:01:56.714Z,13.13
2022-10-13T22:04:25.079Z,16.05
2022-10-13T22:06:53.451Z,13.25
2022-10-13T22:09:21.832Z,13.93
2022-10-13T22:11:56.219Z,13.82
2022-10-13T22:14:25.266Z,14.25
2022-10-13T22:16:55.335Z,14.50
2022-10-13T22:19:24.344Z,15.60
2022-10-13T22:21:52.919Z,12.82
2022-10-13T22:24:22.931Z,13.85
2022-10-13T22:26:53.050Z,13.02
2022-10-13T22:29:23.251Z,14.27
2022-10-13T22:31:55.900Z,14.30
2022-10-13T22:34:24.426Z,12.55
2022-10-13T22:36:54.674Z,13.02
2022-10-13T22:39:23.483Z,12.82
2022-10-13T22:41:53.197Z,15.27
2022-10-13T22:44:21.579Z,14.68
2022-10-13T22:46:50.147Z,13.60
2022-10-13T22:49:18.502Z,13.38
2022-10-13T22:51:46.870Z,15.13
2022-10-13T22:54:15.251Z,15.10
2022-10-13T22:56:43.680Z,14.77
2022-10-13T22:59:14.247Z,14.68
2022-10-13T23:01:42.670Z,16.00
2022-10-13T23:04:11.153Z,15.63
2022-10-13T23:06:39.924Z,12.73
2022-10-13T23:09:11.786Z,15.40
2022-10-13T23:11:40.205Z,12.88
2022-10-13T23:14:08.620Z,15.07
2022-10-13T23:16:38.369Z,14.95
2022-10-13T23:19:06.875Z,13.95
2022-10-13T23:21:35.268Z,12.75
2022-10-13T23:24:06.287Z,13.65
2022-10-13T23:26:35.878Z,17.10
2022-10-13T23:29:05.316Z,14.27
2022-10-13T23:31:33.759Z,14.15
2022-10-13T23:34:03.530Z,15.82
2022-10-13T23:36:33.956Z,14.10
2022-10-13T23:39:05.525Z,13.50
2022-10-13T23:41:35.217Z,14.10
2022-10-13T23:44:03.707Z,13.68
2022-10-13T23:46:32.512Z,11.82
2022-10-13T23:49:02.292Z,16.90
2022-10-13T23:51:30.708Z,13.65
2022-10-13T23:54:00.098Z,14.15
2022-10-13T23:56:28.549Z,14.70
2022-10-13T23:58:56.929Z,13.43
